G.bellini — IKGF — position and weather

sailwx.info

Track history (hours):
 
Tides and Currents Weather Stations Pressure Air Temp Water Temp Dewpoint Dewpoint Depression Visibility Wind Speed Wind Dir Waves Ship Positions

G.bellini

Last reported at 2015-Jun-30 16:13 UTC. Time now 2015-Jul-01 04:55 UTC.
Position N 42°49' E 010°27'.

Length 72 m; draft 3.3 m.

Type: Ship. MMSI: 247041900.

Date/timePositionNaut miles runAvg speedWind from/ knotsBaromVisibWave heightAir tempDewpointWater temp
2015-Jun-30 16:13N 42°49' E 010°27'8 7.5
2015-Jun-30 15:12N 42°56' E 010°33'710.4
2015-Jun-30 14:33N 42°50' E 010°28'20 9.6
2015-Jun-30 12:29N 42°36' E 010°08'2 1.0
2015-Jun-30 10:29N 42°35' E 010°06'0 0.0
2015-Jun-30 09:33N 42°35' E 010°06'8 8.2
2015-Jun-30 08:33N 42°38' E 010°16'2110.2
2015-Jun-30 06:31N 42°55' E 010°33'1 0.6
2015-Jun-30 05:31N 42°55' E 010°33'3 0.3
2015-Jun-29 17:33N 42°52' E 010°30'1 0.8
2015-Jun-29 16:20N 42°52' E 010°30'3 3.4
2015-Jun-29 15:29N 42°49' E 010°27'8 6.3
2015-Jun-29 14:12N 42°56' E 010°33'3 1.8
2015-Jun-29 12:33N 42°53' E 010°31'3 2.0
2015-Jun-29 11:13N 42°56' E 010°33'0 0.3
2015-Jun-29 09:31N 42°56' E 010°33'6 5.8
2015-Jun-29 08:33N 42°51' E 010°29'3 0.2
2015-Jun-28 17:26N 42°54' E 010°32'6 3.1
2015-Jun-28 15:30N 42°49' E 010°27'8 6.3
2015-Jun-28 14:13N 42°56' E 010°33'3 1.7
2015-Jun-28 12:33N 42°54' E 010°32'3 2.0
2015-Jun-28 11:10N 42°56' E 010°33'3 1.2
2015-Jun-28 08:21N 42°53' E 010°31'2 0.9
2015-Jun-28 06:33N 42°54' E 010°32'2 1.6
2015-Jun-28 05:33N 42°56' E 010°34'4 0.4
2015-Jun-27 17:33N 42°52' E 010°30'3 2.4
2015-Jun-27 16:31N 42°54' E 010°33'6 6.1
2015-Jun-27 15:29N 42°49' E 010°27'8 6.4
2015-Jun-27 14:12N 42°56' E 010°33'3 1.6
2015-Jun-27 12:33N 42°54' E 010°32'2 2.4
2015-Jun-27 11:31N 42°56' E 010°33'3 1.7
2015-Jun-27 09:33N 42°53' E 010°31'3 3.1
2015-Jun-27 08:33N 42°55' E 010°34'1 0.6
2015-Jun-27 06:33N 42°54' E 010°32'1 1.0
2015-Jun-27 05:32N 42°55' E 010°33'3 0.3
2015-Jun-26 17:34N 42°52' E 010°30'3 2.9
2015-Jun-26 16:32N 42°54' E 010°33'7 7.1
2015-Jun-26 15:30N 42°49' E 010°26'6 2.1
2015-Jun-26 12:33N 42°54' E 010°32'2 1.7
2015-Jun-26 11:18N 42°56' E 010°33'7 0.4
2015-Jun-25 16:08N 42°50' E 010°28'3 1.1
2015-Jun-25 13:32N 42°52' E 010°30'4 3.0
2015-Jun-25 12:04N 42°56' E 010°33'  
2015-Jun-22 12:32N 42°54' E 010°32'3 2.0
2015-Jun-22 11:12N 42°56' E 010°33'5 3.2
2015-Jun-22 09:33N 42°52' E 010°30'3 0.2
2015-Jun-21 17:24N 42°54' E 010°32'6 3.4
2015-Jun-21 15:31N 42°49' E 010°26'6 2.0
2015-Jun-21 12:33N 42°54' E 010°32'3 2.0
2015-Jun-21 11:14N 42°56' E 010°33'2 1.0
2015-Jun-21 09:20N 42°54' E 010°32'  
Track history (hours):
 
Tides and Currents Weather Stations Pressure Air Temp Water Temp Dewpoint Dewpoint Depression Visibility Wind Speed Wind Dir Waves Ship Positions

G.bellini

Last reported at 2015-Jun-30 16:13 UTC. Time now 2015-Jul-01 04:55 UTC.
Position N 42°49' E 010°27'.

Length 72 m; draft 3.3 m.

Type: Ship. MMSI: 247041900.

Date/timePositionNaut miles runAvg speedWind from/ knotsBaromVisibWave heightAir tempDewpointWater temp
2015-Jun-30 16:13N 42°49' E 010°27'8 7.5
2015-Jun-30 15:12N 42°56' E 010°33'710.4
2015-Jun-30 14:33N 42°50' E 010°28'20 9.6
2015-Jun-30 12:29N 42°36' E 010°08'2 1.0
2015-Jun-30 10:29N 42°35' E 010°06'0 0.0
2015-Jun-30 09:33N 42°35' E 010°06'8 8.2
2015-Jun-30 08:33N 42°38' E 010°16'2110.2
2015-Jun-30 06:31N 42°55' E 010°33'1 0.6
2015-Jun-30 05:31N 42°55' E 010°33'3 0.3
2015-Jun-29 17:33N 42°52' E 010°30'1 0.8
2015-Jun-29 16:20N 42°52' E 010°30'3 3.4
2015-Jun-29 15:29N 42°49' E 010°27'8 6.3
2015-Jun-29 14:12N 42°56' E 010°33'3 1.8
2015-Jun-29 12:33N 42°53' E 010°31'3 2.0
2015-Jun-29 11:13N 42°56' E 010°33'0 0.3
2015-Jun-29 09:31N 42°56' E 010°33'6 5.8
2015-Jun-29 08:33N 42°51' E 010°29'3 0.2
2015-Jun-28 17:26N 42°54' E 010°32'6 3.1
2015-Jun-28 15:30N 42°49' E 010°27'8 6.3
2015-Jun-28 14:13N 42°56' E 010°33'3 1.7
2015-Jun-28 12:33N 42°54' E 010°32'3 2.0
2015-Jun-28 11:10N 42°56' E 010°33'3 1.2
2015-Jun-28 08:21N 42°53' E 010°31'2 0.9
2015-Jun-28 06:33N 42°54' E 010°32'2 1.6
2015-Jun-28 05:33N 42°56' E 010°34'4 0.4
2015-Jun-27 17:33N 42°52' E 010°30'3 2.4
2015-Jun-27 16:31N 42°54' E 010°33'6 6.1
2015-Jun-27 15:29N 42°49' E 010°27'8 6.4
2015-Jun-27 14:12N 42°56' E 010°33'3 1.6
2015-Jun-27 12:33N 42°54' E 010°32'2 2.4
2015-Jun-27 11:31N 42°56' E 010°33'3 1.7
2015-Jun-27 09:33N 42°53' E 010°31'3 3.1
2015-Jun-27 08:33N 42°55' E 010°34'1 0.6
2015-Jun-27 06:33N 42°54' E 010°32'1 1.0
2015-Jun-27 05:32N 42°55' E 010°33'3 0.3
2015-Jun-26 17:34N 42°52' E 010°30'3 2.9
2015-Jun-26 16:32N 42°54' E 010°33'7 7.1
2015-Jun-26 15:30N 42°49' E 010°26'6 2.1
2015-Jun-26 12:33N 42°54' E 010°32'2 1.7
2015-Jun-26 11:18N 42°56' E 010°33'7 0.4
2015-Jun-25 16:08N 42°50' E 010°28'3 1.1
2015-Jun-25 13:32N 42°52' E 010°30'4 3.0
2015-Jun-25 12:04N 42°56' E 010°33'  
2015-Jun-22 12:32N 42°54' E 010°32'3 2.0
2015-Jun-22 11:12N 42°56' E 010°33'5 3.2
2015-Jun-22 09:33N 42°52' E 010°30'3 0.2
2015-Jun-21 17:24N 42°54' E 010°32'6 3.4
2015-Jun-21 15:31N 42°49' E 010°26'6 2.0
2015-Jun-21 12:33N 42°54' E 010°32'3 2.0
2015-Jun-21 11:14N 42°56' E 010°33'2 1.0
2015-Jun-21 09:20N 42°54' E 010°32'  

Dump ship's entire track history